Latest Weather Observations for Wattamolla

IDN60901

Issued at 12:41 pm EST Saturday 23 May 2015 (issued every 10 minutes, with the page automatically refreshed every 10 minutes)

About weather observations | Map of Sydney area stations | Latest observations for Sydney area | Other Formats
Station Details ID: 066208 Name: WATTAMOLLA AWS Lat: -34.14 Lon: 151.12 Height: 44.0 m
Data from the previous 72 hours. | See also: Recent months for locations in New South Wales
Date/Time
EST
Tmp

°C
App
Tmp
°C
Dew
Point
°C
Rel
Hum
%
Delta-T

°C
Wind Press
QNH
hPa
Press
MSL
hPa
Rain
since
9 am
mm
Dir
 
Spd
km/h
Gust
km/h
Spd
kts
Gust
kts
23/12:30pm - - - - - S 41 52 22 28 - - -
23/12:00pm - - - - - S 46 56 25 30 - - -
23/11:30am - - - - - S 46 56 25 30 - - -
23/11:00am - - - - - S 50 57 27 31 - - -
23/10:30am - - - - - S 46 57 25 31 - - -
23/10:00am - - - - - S 46 59 25 32 - - -
23/09:34am - - - - - S 41 59 22 32 - - -
23/09:30am - - - - - S 43 59 23 32 - - -
23/09:29am - - - - - S 41 59 22 32 - - -
23/09:00am - - - - - S 39 52 21 28 - - -
23/08:36am - - - - - S 41 59 22 32 - - -
23/08:30am - - - - - S 44 57 24 31 - - -
23/08:03am - - - - - S 35 61 19 33 - - -
23/08:00am - - - - - S 35 50 19 27 - - -
23/07:51am - - - - - S 35 54 19 29 - - -
23/07:30am - - - - - S 41 57 22 31 - - -
23/07:00am - - - - - S 43 63 23 34 - - -
23/06:30am - - - - - S 43 61 23 33 - - -
23/06:10am - - - - - S 46 65 25 35 - - -
23/06:00am - - - - - S 50 65 27 35 - - -
23/05:48am - - - - - S 46 65 25 35 - - -
23/05:30am - - - - - S 54 69 29 37 - - -
23/05:12am - - - - - S 50 76 27 41 - - -
23/05:00am - - - - - S 56 69 30 37 - - -
23/04:30am - - - - - S 54 72 29 39 - - -
23/04:01am - - - - - S 41 65 22 35 - - -
23/04:00am - - - - - S 39 56 21 30 - - -
23/03:30am - - - - - S 43 69 23 37 - - -
23/03:15am - - - - - S 48 67 26 36 - - -
23/03:00am - - - - - S 54 69 29 37 - - -
23/02:30am - - - - - S 59 72 32 39 - - -
23/02:02am - - - - - S 54 72 29 39 - - -
23/02:00am - - - - - S 56 72 30 39 - - -
23/01:30am - - - - - S 52 74 28 40 - - -
23/01:02am - - - - - S 50 67 27 36 - - -
23/01:00am - - - - - S 50 67 27 36 - - -
23/12:30am - - - - - S 54 72 29 39 - - -
23/12:00am - - - - - S 48 72 26 39 - - -
 
Date/Time
EST
Tmp

°C
App
Tmp
°C
Dew
Point
°C
Rel
Hum
%
Delta-T

°C
Wind Press
QNH
hPa
Press
MSL
hPa
Rain
since
9 am
mm
Dir
 
Spd
km/h
Gust
km/h
Spd
kts
Gust
kts
22/11:58pm - - - - - S 54 82 29 44 - - -
22/11:50pm - - - - - S 50 82 27 44 - - -
22/11:49pm - - - - - S 50 82 27 44 - - -
22/11:30pm - - - - - S 46 65 25 35 - - -
22/11:23pm - - - - - S 43 57 23 31 - - -
22/11:00pm - - - - - S 33 52 18 28 - - -
22/10:30pm - - - - - S 33 54 18 29 - - -
22/10:05pm - - - - - S 28 46 15 25 - - -
22/10:00pm - - - - - S 26 39 14 21 - - -
22/09:30pm - - - - - S 39 61 21 33 - - -
22/09:13pm - - - - - S 46 63 25 34 - - -
22/09:00pm - - - - - S 65 87 35 47 - - -
22/08:30pm - - - - - S 65 89 35 48 - - -
22/08:00pm - - - - - S 65 83 35 45 - - -
22/07:54pm - - - - - S 57 82 31 44 - - -
22/07:47pm - - - - - S 65 82 35 44 - - -
22/07:30pm - - - - - SSE 72 102 39 55 - - -
22/07:29pm - - - - - SSE 70 102 38 55 - - -
22/07:27pm - - - - - S 63 102 34 55 - - -
22/07:25pm - - - - - S 56 87 30 47 - - -
22/07:15pm - - - - - S 57 78 31 42 - - -
22/07:12pm - - - - - S 65 78 35 42 - - -
22/07:01pm - - - - - S 69 96 37 52 - - -
22/07:00pm - - - - - S 69 83 37 45 - - -
22/06:30pm - - - - - S 65 89 35 48 - - -
22/06:26pm - - - - - S 72 100 39 54 - - -
22/06:23pm - - - - - SSE 80 113 43 61 - - -
22/06:17pm - - - - - SSE 74 113 40 61 - - -
22/06:16pm - - - - - SSE 72 113 39 61 - - -
22/06:14pm - - - - - SSE 65 98 35 53 - - -
22/06:03pm - - - - - S 59 87 32 47 - - -
22/06:00pm - - - - - S 65 89 35 48 - - -
22/05:59pm - - - - - S 67 89 36 48 - - -
22/05:44pm - - - - - S 72 91 39 49 - - -
22/05:30pm - - - - - S 70 89 38 48 - - -
22/05:28pm - - - - - S 67 89 36 48 - - -
22/05:06pm - - - - - S 59 78 32 42 - - -
22/05:00pm - - - - - S 59 70 32 38 - - -
22/04:35pm - - - - - S 74 93 40 50 - - -
22/04:30pm - - - - - S 74 89 40 48 - - -
22/04:09pm - - - - - S 76 95 41 51 - - -
22/04:00pm - - - - - S 78 95 42 51 - - -
22/03:30pm - - - - - SSE 72 93 39 50 - - -
22/03:00pm - - - - - S 76 95 41 51 - - -
22/02:34pm - - - - - S 83 102 45 55 - - -
22/02:30pm - - - - - S 83 98 45 53 - - -
22/02:00pm - - - - - S 83 109 45 59 - - -
22/01:30pm - - - - - S 87 106 47 57 - - -
22/01:00pm - - - - - S 82 102 44 55 - - -
22/12:41pm - - - - - S 82 100 44 54 - - -
22/12:30pm - - - - - S 87 104 47 56 - - -
22/12:00pm - - - - - S 91 109 49 59 - - -
22/11:36am - - - - - S 87 106 47 57 - - -
22/11:30am - - - - - S 87 104 47 56 - - -
22/11:00am - - - - - S 89 111 48 60 - - -
22/10:30am - - - - - S 93 115 50 62 - - -
22/10:03am - - - - - SSE 78 107 42 58 - - -
22/10:00am - - - - - SSE 69 98 37 53 - - -
22/09:58am - - - - - SSE 63 96 34 52 - - -
22/09:30am - - - - - S 65 83 35 45 - - -
22/09:27am - - - - - SSE 63 83 34 45 - - -
22/09:23am - - - - - SSE 57 83 31 45 - - -
22/09:19am - - - - - SSE 52 70 28 38 - - -
22/09:00am - - - - - SSE 48 63 26 34 - - -
22/08:58am - - - - - SSE 50 70 27 38 - - -
22/08:30am - - - - - SSE 65 85 35 46 - - -
22/08:06am - - - - - SSE 69 87 37 47 - - -
22/08:00am - - - - - SSE 65 82 35 44 - - -
22/07:42am - - - - - SSE 65 83 35 45 - - -
22/07:30am - - - - - SSE 61 78 33 42 - - -
22/07:18am - - - - - SSW 46 78 25 42 - - -
22/07:14am - - - - - SSW 33 69 18 37 - - -
22/07:13am - - - - - SSW 30 69 16 37 - - -
22/07:00am - - - - - SSW 28 50 15 27 - - -
22/06:33am - - - - - SSW 35 67 19 36 - - -
22/06:30am - - - - - SSW 32 52 17 28 - - -
22/06:00am - - - - - S 35 59 19 32 - - -
22/05:30am - - - - - S 35 56 19 30 - - -
22/05:00am - - - - - S 35 54 19 29 - - -
22/04:30am - - - - - S 43 69 23 37 - - -
22/04:00am - - - - - S 41 61 22 33 - - -
22/03:30am - - - - - S 50 70 27 38 - - -
22/03:00am - - - - - S 52 70 28 38 - - -
22/02:30am - - - - - S 46 70 25 38 - - -
22/02:13am - - - - - S 54 72 29 39 - - -
22/02:00am - - - - - S 52 70 28 38 - - -
22/01:39am - - - - - S 56 74 30 40 - - -
22/01:30am - - - - - S 59 76 32 41 - - -
22/01:21am - - - - - S 61 80 33 43 - - -
22/01:00am - - - - - S 63 76 34 41 - - -
22/12:30am - - - - - S 59 80 32 43 - - -
22/12:28am - - - - - S 59 80 32 43 - - -
22/12:00am - - - - - S 59 70 32 38 - - -
 
Date/Time
EST
Tmp

°C
App
Tmp
°C
Dew
Point
°C
Rel
Hum
%
Delta-T

°C
Wind Press
QNH
hPa
Press
MSL
hPa
Rain
since
9 am
mm
Dir
 
Spd
km/h
Gust
km/h
Spd
kts
Gust
kts
21/11:31pm - - - - - S 50 67 27 36 - - -
21/11:30pm - - - - - S 50 67 27 36 - - -
21/11:12pm - - - - - S 50 72 27 39 - - -
21/11:00pm - - - - - S 43 59 23 32 - - -
21/10:44pm - - - - - S 35 56 19 30 - - -
21/10:30pm - - - - - S 35 50 19 27 - - -
21/10:00pm - - - - - S 37 52 20 28 - - -
21/09:34pm - - - - - S 32 50 17 27 - - -
21/09:30pm - - - - - S 35 50 19 27 - - -
21/09:01pm - - - - - S 43 61 23 33 - - -
21/09:00pm - - - - - S 46 61 25 33 - - -
21/08:30pm - - - - - S 37 52 20 28 - - -
21/08:00pm - - - - - S 28 44 15 24 - - -
21/07:30pm - - - - - SSW 20 33 11 18 - - -
21/07:00pm - - - - - SW 22 41 12 22 - - -
21/06:50pm - - - - - SSW 30 54 16 29 - - -
21/06:30pm - - - - - S 48 57 26 31 - - -
21/06:00pm - - - - - S 50 57 27 31 - - -
21/05:41pm - - - - - S 44 70 24 38 - - -
21/05:30pm - - - - - S 44 54 24 29 - - -
21/05:00pm - - - - - S 50 57 27 31 - - -
21/04:30pm - - - - - S 48 56 26 30 - - -
21/04:00pm - - - - - S 44 52 24 28 - - -
21/03:30pm - - - - - S 41 48 22 26 - - -
21/03:00pm - - - - - S 43 52 23 28 - - -
21/02:30pm - - - - - S 33 39 18 21 - - -
21/02:00pm - - - - - S 35 43 19 23 - - -
21/01:30pm - - - - - S 35 39 19 21 - - -
21/01:00pm - - - - - S 39 44 21 24 - - -
21/12:30pm - - - - - S 33 39 18 21 - - -
21/12:00pm - - - - - S 33 39 18 21 - - -
21/11:30am - - - - - S 30 33 16 18 - - -
21/11:00am - - - - - S 26 33 14 18 - - -
21/10:30am - - - - - S 30 33 16 18 - - -
21/10:00am - - - - - S 17 33 9 18 - - -
21/09:30am - - - - - SW 9 20 5 11 - - -
21/09:00am - - - - - W 13 17 7 9 - - -
21/08:30am - - - - - W 17 22 9 12 - - -
21/08:00am - - - - - W 24 33 13 18 - - -
21/07:30am - - - - - WNW 24 35 13 19 - - -
21/07:00am - - - - - WNW 24 35 13 19 - - -
21/06:30am - - - - - WNW 19 28 10 15 - - -
21/06:00am - - - - - NW 11 17 6 9 - - -
21/05:30am - - - - - W 24 30 13 16 - - -
21/05:00am - - - - - WNW 15 19 8 10 - - -
21/04:30am - - - - - WSW 15 19 8 10 - - -
21/04:00am - - - - - SW 9 11 5 6 - - -
21/03:30am - - - - - WNW 13 17 7 9 - - -
21/03:00am - - - - - NNW 7 11 4 6 - - -
21/02:30am - - - - - WSW 9 11 5 6 - - -
21/02:00am - - - - - WNW 11 13 6 7 - - -
21/01:30am - - - - - WNW 13 17 7 9 - - -
21/01:00am - - - - - W 17 20 9 11 - - -
21/12:30am - - - - - W 17 19 9 10 - - -
21/12:00am - - - - - W 17 20 9 11 - - -
 
Date/Time
EST
Tmp

°C
App
Tmp
°C
Dew
Point
°C
Rel
Hum
%
Delta-T

°C
Wind Press
QNH
hPa
Press
MSL
hPa
Rain
since
9 am
mm
Dir
 
Spd
km/h
Gust
km/h
Spd
kts
Gust
kts
20/11:30pm - - - - - W 15 19 8 10 - - -
20/11:00pm - - - - - WNW 17 24 9 13 - - -
20/10:30pm - - - - - WNW 17 22 9 12 - - -
20/10:00pm - - - - - W 11 15 6 8 - - -
20/09:30pm - - - - - W 7 11 4 6 - - -
20/09:00pm - - - - - NW 9 13 5 7 - - -
20/08:30pm - - - - - WSW 9 13 5 7 - - -
20/08:00pm - - - - - NNW 11 13 6 7 - - -
20/07:30pm - - - - - N 15 17 8 9 - - -
20/07:00pm - - - - - NNW 13 15 7 8 - - -
20/06:30pm - - - - - N 11 15 6 8 - - -
20/06:00pm - - - - - NNW 11 13 6 7 - - -
20/05:30pm - - - - - NNW 9 13 5 7 - - -
20/05:00pm - - - - - N 9 11 5 6 - - -
20/04:30pm - - - - - N 9 13 5 7 - - -
20/04:00pm - - - - - NNE 9 15 5 8 - - -
20/03:30pm - - - - - NE 9 11 5 6 - - -
20/03:00pm - - - - - ENE 11 17 6 9 - - -
20/02:30pm - - - - - SSE 9 15 5 8 - - -
20/02:00pm - - - - - NW 9 17 5 9 - - -
20/01:30pm - - - - - NW 15 22 8 12 - - -
20/01:00pm - - - - - NW 17 28 9 15 - - -

Latest Capital City Observations: Canberra | Sydney | Melbourne | Brisbane | Adelaide | Perth | Hobart | Darwin

Other Formats:

Comma delimited format used in spreadsheet applications
http://www.bom.gov.au/fwo/IDN60901/IDN60901.95752.axf

JavaScript Object Notation format (JSON) in row-major order
http://www.bom.gov.au/fwo/IDN60901/IDN60901.95752.json